Terminal Aerodrome Forecast
Issued by NWS

Home | Current Version | Previous Version | Text Only | Print | Product List | Glossary Off
Versions: 1 2 3 4 5 6 7 8 9 10 11 12 13 14 15 16 17 18 19 20 21 22 23

000
FTUS43 KABR 311200 AAA
TAFMBG
TAF AMD
KMBG 311226Z 3112/0112 29010KT P6SM SCT150
      TEMPO 3112/3114 BKN007
     FM311500 30013KT P6SM BKN100
     FM311800 31014KT P6SM VCSH BKN070
     FM312200 29008KT P6SM BKN200
     FM010100 30005KT P6SM SKC=

USA.gov is the U.S. government's official web portal to all federal, state and local government web resources and services.